sensor_id;sensor_type;location;lat;lon;timestamp;P1;durP1;ratioP1;P2;durP2;ratioP2
19543;SDS011;9917;51.256;7.152;2023-04-30T00:01:57;14.00;;;10.13;;
19543;SDS011;9917;51.256;7.152;2023-04-30T00:04:24;19.10;;;10.57;;
19543;SDS011;9917;51.256;7.152;2023-04-30T00:06:50;19.47;;;11.03;;
19543;SDS011;9917;51.256;7.152;2023-04-30T00:09:16;14.83;;;10.37;;
19543;SDS011;9917;51.256;7.152;2023-04-30T00:11:41;17.23;;;10.53;;
19543;SDS011;9917;51.256;7.152;2023-04-30T00:14:07;15.43;;;9.90;;
19543;SDS011;9917;51.256;7.152;2023-04-30T00:16:33;16.47;;;10.33;;
19543;SDS011;9917;51.256;7.152;2023-04-30T00:18:59;18.33;;;10.53;;
19543;SDS011;9917;51.256;7.152;2023-04-30T00:21:26;20.17;;;10.67;;
19543;SDS011;9917;51.256;7.152;2023-04-30T00:23:52;16.67;;;10.90;;
19543;SDS011;9917;51.256;7.152;2023-04-30T00:26:18;13.93;;;10.10;;
19543;SDS011;9917;51.256;7.152;2023-04-30T00:28:44;17.13;;;10.53;;
19543;SDS011;9917;51.256;7.152;2023-04-30T00:31:10;15.27;;;10.23;;
19543;SDS011;9917;51.256;7.152;2023-04-30T00:33:36;15.57;;;9.37;;
19543;SDS011;9917;51.256;7.152;2023-04-30T00:36:02;13.43;;;8.17;;
19543;SDS011;9917;51.256;7.152;2023-04-30T00:38:29;15.30;;;9.20;;
19543;SDS011;9917;51.256;7.152;2023-04-30T00:40:55;15.10;;;8.97;;
19543;SDS011;9917;51.256;7.152;2023-04-30T00:43:21;13.80;;;9.17;;
19543;SDS011;9917;51.256;7.152;2023-04-30T00:45:47;13.20;;;8.97;;
19543;SDS011;9917;51.256;7.152;2023-04-30T00:54:31;18.30;;;9.00;;
19543;SDS011;9917;51.256;7.152;2023-04-30T01:00:40;13.70;;;9.40;;
19543;SDS011;9917;51.256;7.152;2023-04-30T01:02:55;13.00;;;9.23;;
19543;SDS011;9917;51.256;7.152;2023-04-30T01:05:21;14.83;;;8.67;;
19543;SDS011;9917;51.256;7.152;2023-04-30T01:07:47;14.10;;;9.57;;
19543;SDS011;9917;51.256;7.152;2023-04-30T01:10:15;18.03;;;9.93;;
19543;SDS011;9917;51.256;7.152;2023-04-30T01:12:43;16.40;;;9.60;;
19543;SDS011;9917;51.256;7.152;2023-04-30T01:15:17;14.00;;;9.43;;
19543;SDS011;9917;51.256;7.152;2023-04-30T01:17:53;13.83;;;8.77;;
19543;SDS011;9917;51.256;7.152;2023-04-30T01:20:22;14.67;;;9.10;;
19543;SDS011;9917;51.256;7.152;2023-04-30T01:22:51;15.07;;;9.03;;
19543;SDS011;9917;51.256;7.152;2023-04-30T01:25:29;16.90;;;9.33;;
19543;SDS011;9917;51.256;7.152;2023-04-30T01:28:09;14.87;;;9.60;;
19543;SDS011;9917;51.256;7.152;2023-04-30T01:30:38;14.00;;;9.03;;
19543;SDS011;9917;51.256;7.152;2023-04-30T01:33:08;15.73;;;9.83;;
19543;SDS011;9917;51.256;7.152;2023-04-30T01:35:41;12.57;;;8.30;;
19543;SDS011;9917;51.256;7.152;2023-04-30T01:38:29;13.93;;;9.20;;
19543;SDS011;9917;51.256;7.152;2023-04-30T01:41:06;13.83;;;9.17;;
19543;SDS011;9917;51.256;7.152;2023-04-30T01:43:38;15.10;;;9.33;;
19543;SDS011;9917;51.256;7.152;2023-04-30T01:46:11;14.67;;;9.50;;
19543;SDS011;9917;51.256;7.152;2023-04-30T01:48:45;14.67;;;8.60;;
19543;SDS011;9917;51.256;7.152;2023-04-30T01:51:30;16.10;;;9.83;;
19543;SDS011;9917;51.256;7.152;2023-04-30T01:54:02;14.93;;;9.00;;
19543;SDS011;9917;51.256;7.152;2023-04-30T01:56:35;14.03;;;9.30;;
19543;SDS011;9917;51.256;7.152;2023-04-30T01:59:06;14.43;;;9.13;;
19543;SDS011;9917;51.256;7.152;2023-04-30T02:01:32;16.47;;;9.43;;
19543;SDS011;9917;51.256;7.152;2023-04-30T02:03:58;17.50;;;9.47;;
19543;SDS011;9917;51.256;7.152;2023-04-30T02:06:24;14.87;;;9.40;;
19543;SDS011;9917;51.256;7.152;2023-04-30T02:08:51;15.00;;;9.23;;
19543;SDS011;9917;51.256;7.152;2023-04-30T02:11:17;17.20;;;9.43;;
19543;SDS011;9917;51.256;7.152;2023-04-30T02:13:42;13.83;;;9.30;;
19543;SDS011;9917;51.256;7.152;2023-04-30T02:16:10;14.77;;;9.37;;
19543;SDS011;9917;51.256;7.152;2023-04-30T02:18:35;15.67;;;9.80;;
19543;SDS011;9917;51.256;7.152;2023-04-30T02:21:02;14.00;;;9.37;;
19543;SDS011;9917;51.256;7.152;2023-04-30T02:23:27;15.90;;;9.70;;
19543;SDS011;9917;51.256;7.152;2023-04-30T02:25:53;14.03;;;9.17;;
19543;SDS011;9917;51.256;7.152;2023-04-30T02:28:19;15.73;;;9.47;;
19543;SDS011;9917;51.256;7.152;2023-04-30T02:30:45;15.10;;;10.03;;
19543;SDS011;9917;51.256;7.152;2023-04-30T02:33:40;14.53;;;9.40;;
19543;SDS011;9917;51.256;7.152;2023-04-30T02:36:05;14.57;;;8.87;;
19543;SDS011;9917;51.256;7.152;2023-04-30T02:38:31;14.67;;;9.17;;
19543;SDS011;9917;51.256;7.152;2023-04-30T02:40:57;15.20;;;10.10;;
19543;SDS011;9917;51.256;7.152;2023-04-30T02:43:23;17.17;;;10.50;;
19543;SDS011;9917;51.256;7.152;2023-04-30T02:45:49;17.43;;;9.67;;
19543;SDS011;9917;51.256;7.152;2023-04-30T02:48:15;17.87;;;9.97;;
19543;SDS011;9917;51.256;7.152;2023-04-30T02:50:42;15.27;;;9.73;;
19543;SDS011;9917;51.256;7.152;2023-04-30T02:53:08;17.03;;;10.00;;
19543;SDS011;9917;51.256;7.152;2023-04-30T02:55:34;16.83;;;9.67;;
19543;SDS011;9917;51.256;7.152;2023-04-30T02:58:01;15.70;;;9.80;;
19543;SDS011;9917;51.256;7.152;2023-04-30T03:00:36;14.00;;;9.40;;
19543;SDS011;9917;51.256;7.152;2023-04-30T03:03:01;14.63;;;9.23;;
19543;SDS011;9917;51.256;7.152;2023-04-30T03:05:28;16.90;;;10.67;;
19543;SDS011;9917;51.256;7.152;2023-04-30T03:07:56;17.57;;;10.53;;
19543;SDS011;9917;51.256;7.152;2023-04-30T03:10:21;17.83;;;11.27;;
19543;SDS011;9917;51.256;7.152;2023-04-30T03:12:47;14.30;;;9.83;;
19543;SDS011;9917;51.256;7.152;2023-04-30T03:15:13;17.60;;;10.33;;
19543;SDS011;9917;51.256;7.152;2023-04-30T03:17:39;18.47;;;10.77;;
19543;SDS011;9917;51.256;7.152;2023-04-30T03:20:05;15.47;;;10.23;;
19543;SDS011;9917;51.256;7.152;2023-04-30T03:22:32;14.93;;;9.67;;
19543;SDS011;9917;51.256;7.152;2023-04-30T03:24:59;16.87;;;10.80;;
19543;SDS011;9917;51.256;7.152;2023-04-30T03:27:25;16.60;;;11.03;;
19543;SDS011;9917;51.256;7.152;2023-04-30T03:29:51;15.60;;;10.47;;
19543;SDS011;9917;51.256;7.152;2023-04-30T03:32:16;19.57;;;10.57;;
19543;SDS011;9917;51.256;7.152;2023-04-30T03:34:42;21.57;;;10.97;;
19543;SDS011;9917;51.256;7.152;2023-04-30T03:37:08;21.13;;;11.37;;
19543;SDS011;9917;51.256;7.152;2023-04-30T03:39:34;21.43;;;11.47;;
19543;SDS011;9917;51.256;7.152;2023-04-30T03:42:01;18.63;;;10.43;;
19543;SDS011;9917;51.256;7.152;2023-04-30T03:44:27;17.50;;;10.30;;
19543;SDS011;9917;51.256;7.152;2023-04-30T03:46:53;15.87;;;10.90;;
19543;SDS011;9917;51.256;7.152;2023-04-30T03:49:19;16.83;;;10.87;;
19543;SDS011;9917;51.256;7.152;2023-04-30T03:51:44;18.53;;;11.93;;
19543;SDS011;9917;51.256;7.152;2023-04-30T03:54:10;19.27;;;12.13;;
19543;SDS011;9917;51.256;7.152;2023-04-30T03:56:41;18.83;;;11.10;;
19543;SDS011;9917;51.256;7.152;2023-04-30T03:59:20;17.77;;;11.87;;
19543;SDS011;9917;51.256;7.152;2023-04-30T04:01:48;17.97;;;12.27;;
19543;SDS011;9917;51.256;7.152;2023-04-30T04:04:31;21.07;;;13.77;;
19543;SDS011;9917;51.256;7.152;2023-04-30T04:06:57;20.00;;;12.23;;
19543;SDS011;9917;51.256;7.152;2023-04-30T04:09:23;18.67;;;11.23;;
19543;SDS011;9917;51.256;7.152;2023-04-30T04:11:59;21.30;;;12.40;;
19543;SDS011;9917;51.256;7.152;2023-04-30T04:14:26;19.67;;;11.10;;
19543;SDS011;9917;51.256;7.152;2023-04-30T04:16:54;18.97;;;11.30;;
19543;SDS011;9917;51.256;7.152;2023-04-30T04:19:20;20.80;;;11.60;;
19543;SDS011;9917;51.256;7.152;2023-04-30T04:21:46;15.27;;;10.70;;
19543;SDS011;9917;51.256;7.152;2023-04-30T04:24:15;20.77;;;13.03;;
19543;SDS011;9917;51.256;7.152;2023-04-30T04:26:40;19.40;;;12.17;;
19543;SDS011;9917;51.256;7.152;2023-04-30T04:29:06;20.53;;;12.80;;
19543;SDS011;9917;51.256;7.152;2023-04-30T04:31:34;20.37;;;12.53;;
19543;SDS011;9917;51.256;7.152;2023-04-30T04:34:00;21.07;;;12.17;;
19543;SDS011;9917;51.256;7.152;2023-04-30T04:36:27;21.87;;;13.37;;
19543;SDS011;9917;51.256;7.152;2023-04-30T04:38:53;21.40;;;12.63;;
19543;SDS011;9917;51.256;7.152;2023-04-30T04:41:19;20.07;;;12.80;;
19543;SDS011;9917;51.256;7.152;2023-04-30T04:43:45;23.87;;;12.43;;
19543;SDS011;9917;51.256;7.152;2023-04-30T04:46:11;19.67;;;11.33;;
19543;SDS011;9917;51.256;7.152;2023-04-30T04:48:38;19.70;;;11.93;;
19543;SDS011;9917;51.256;7.152;2023-04-30T04:51:04;19.17;;;11.67;;
19543;SDS011;9917;51.256;7.152;2023-04-30T04:53:30;20.33;;;12.37;;
19543;SDS011;9917;51.256;7.152;2023-04-30T04:55:56;22.23;;;12.87;;
19543;SDS011;9917;51.256;7.152;2023-04-30T04:58:22;18.50;;;12.67;;
19543;SDS011;9917;51.256;7.152;2023-04-30T05:00:48;23.87;;;13.37;;
19543;SDS011;9917;51.256;7.152;2023-04-30T05:03:14;19.20;;;12.70;;
19543;SDS011;9917;51.256;7.152;2023-04-30T05:05:41;20.50;;;12.73;;
19543;SDS011;9917;51.256;7.152;2023-04-30T05:08:07;23.53;;;12.73;;
19543;SDS011;9917;51.256;7.152;2023-04-30T05:10:33;22.20;;;13.17;;
19543;SDS011;9917;51.256;7.152;2023-04-30T05:12:59;21.87;;;12.50;;
19543;SDS011;9917;51.256;7.152;2023-04-30T05:15:24;19.53;;;12.17;;
19543;SDS011;9917;51.256;7.152;2023-04-30T05:17:50;19.03;;;12.57;;
19543;SDS011;9917;51.256;7.152;2023-04-30T05:20:16;21.93;;;12.67;;
19543;SDS011;9917;51.256;7.152;2023-04-30T05:22:43;23.23;;;13.60;;
19543;SDS011;9917;51.256;7.152;2023-04-30T05:25:09;21.40;;;12.80;;
19543;SDS011;9917;51.256;7.152;2023-04-30T05:27:50;23.80;;;13.40;;
19543;SDS011;9917;51.256;7.152;2023-04-30T05:30:15;25.23;;;14.00;;
19543;SDS011;9917;51.256;7.152;2023-04-30T05:32:41;19.57;;;13.07;;
19543;SDS011;9917;51.256;7.152;2023-04-30T05:35:08;24.23;;;13.70;;
19543;SDS011;9917;51.256;7.152;2023-04-30T05:37:34;19.73;;;12.43;;
19543;SDS011;9917;51.256;7.152;2023-04-30T05:40:00;20.57;;;13.00;;
19543;SDS011;9917;51.256;7.152;2023-04-30T05:42:26;24.23;;;13.80;;
19543;SDS011;9917;51.256;7.152;2023-04-30T05:44:53;22.10;;;13.47;;
19543;SDS011;9917;51.256;7.152;2023-04-30T05:47:19;21.37;;;13.20;;
19543;SDS011;9917;51.256;7.152;2023-04-30T05:49:45;19.23;;;12.67;;
19543;SDS011;9917;51.256;7.152;2023-04-30T05:52:10;19.87;;;12.20;;
19543;SDS011;9917;51.256;7.152;2023-04-30T05:54:36;19.60;;;12.57;;
19543;SDS011;9917;51.256;7.152;2023-04-30T05:57:02;18.23;;;12.27;;
19543;SDS011;9917;51.256;7.152;2023-04-30T05:59:28;19.20;;;12.53;;
19543;SDS011;9917;51.256;7.152;2023-04-30T06:01:55;19.70;;;11.97;;
19543;SDS011;9917;51.256;7.152;2023-04-30T06:04:21;20.20;;;11.90;;
19543;SDS011;9917;51.256;7.152;2023-04-30T06:09:37;19.50;;;12.13;;
19543;SDS011;9917;51.256;7.152;2023-04-30T06:12:02;19.73;;;11.60;;
19543;SDS011;9917;51.256;7.152;2023-04-30T06:14:29;18.40;;;11.47;;
19543;SDS011;9917;51.256;7.152;2023-04-30T06:16:56;19.63;;;11.87;;
19543;SDS011;9917;51.256;7.152;2023-04-30T06:19:22;20.67;;;11.97;;
19543;SDS011;9917;51.256;7.152;2023-04-30T06:21:47;19.00;;;11.17;;
19543;SDS011;9917;51.256;7.152;2023-04-30T06:24:13;15.70;;;10.37;;
19543;SDS011;9917;51.256;7.152;2023-04-30T06:26:39;16.73;;;10.97;;
19543;SDS011;9917;51.256;7.152;2023-04-30T06:29:05;15.90;;;11.03;;
19543;SDS011;9917;51.256;7.152;2023-04-30T06:31:30;18.37;;;10.93;;
19543;SDS011;9917;51.256;7.152;2023-04-30T06:33:57;16.70;;;10.97;;
19543;SDS011;9917;51.256;7.152;2023-04-30T06:36:23;20.17;;;11.37;;
19543;SDS011;9917;51.256;7.152;2023-04-30T06:38:49;18.30;;;10.67;;
19543;SDS011;9917;51.256;7.152;2023-04-30T06:41:15;16.63;;;11.13;;
19543;SDS011;9917;51.256;7.152;2023-04-30T06:43:41;19.60;;;11.07;;
19543;SDS011;9917;51.256;7.152;2023-04-30T06:46:07;14.73;;;10.63;;
19543;SDS011;9917;51.256;7.152;2023-04-30T06:48:33;16.30;;;11.10;;
19543;SDS011;9917;51.256;7.152;2023-04-30T06:51:00;16.63;;;10.80;;
19543;SDS011;9917;51.256;7.152;2023-04-30T06:53:26;15.30;;;9.80;;
19543;SDS011;9917;51.256;7.152;2023-04-30T06:55:52;19.07;;;11.07;;
19543;SDS011;9917;51.256;7.152;2023-04-30T06:58:18;17.07;;;10.37;;
19543;SDS011;9917;51.256;7.152;2023-04-30T07:00:43;14.13;;;10.20;;
19543;SDS011;9917;51.256;7.152;2023-04-30T07:03:09;17.20;;;10.03;;
19543;SDS011;9917;51.256;7.152;2023-04-30T07:05:35;15.33;;;10.23;;
19543;SDS011;9917;51.256;7.152;2023-04-30T07:08:02;14.93;;;10.40;;
19543;SDS011;9917;51.256;7.152;2023-04-30T07:10:38;17.07;;;9.93;;
19543;SDS011;9917;51.256;7.152;2023-04-30T07:13:25;13.30;;;9.63;;
19543;SDS011;9917;51.256;7.152;2023-04-30T07:15:51;18.00;;;9.82;;
19543;SDS011;9917;51.256;7.152;2023-04-30T07:18:17;15.10;;;10.03;;
19543;SDS011;9917;51.256;7.152;2023-04-30T07:20:42;14.43;;;9.80;;
19543;SDS011;9917;51.256;7.152;2023-04-30T07:23:10;14.43;;;9.63;;
19543;SDS011;9917;51.256;7.152;2023-04-30T07:25:35;14.30;;;9.17;;
19543;SDS011;9917;51.256;7.152;2023-04-30T07:28:01;14.33;;;9.90;;
19543;SDS011;9917;51.256;7.152;2023-04-30T07:30:36;13.52;;;9.10;;
19543;SDS011;9917;51.256;7.152;2023-04-30T07:33:02;13.90;;;8.93;;
19543;SDS011;9917;51.256;7.152;2023-04-30T07:35:38;13.67;;;9.53;;
19543;SDS011;9917;51.256;7.152;2023-04-30T07:38:07;14.93;;;8.67;;
19543;SDS011;9917;51.256;7.152;2023-04-30T07:40:57;13.40;;;8.53;;
19543;SDS011;9917;51.256;7.152;2023-04-30T07:43:27;13.15;;;8.35;;
19543;SDS011;9917;51.256;7.152;2023-04-30T07:46:02;13.45;;;8.75;;
19543;SDS011;9917;51.256;7.152;2023-04-30T07:51:42;14.95;;;7.40;;
19543;SDS011;9917;51.256;7.152;2023-04-30T07:54:23;10.48;;;6.85;;
19543;SDS011;9917;51.256;7.152;2023-04-30T07:57:06;8.52;;;6.10;;
19543;SDS011;9917;51.256;7.152;2023-04-30T07:59:32;11.15;;;5.28;;
19543;SDS011;9917;51.256;7.152;2023-04-30T08:01:59;8.95;;;6.05;;
19543;SDS011;9917;51.256;7.152;2023-04-30T08:04:28;26.02;;;15.35;;
19543;SDS011;9917;51.256;7.152;2023-04-30T08:09:32;9.48;;;5.20;;
19543;SDS011;9917;51.256;7.152;2023-04-30T08:11:58;7.10;;;4.82;;
19543;SDS011;9917;51.256;7.152;2023-04-30T08:14:25;8.95;;;5.70;;
19543;SDS011;9917;51.256;7.152;2023-04-30T08:16:51;7.30;;;4.60;;
19543;SDS011;9917;51.256;7.152;2023-04-30T08:19:17;7.53;;;4.45;;
19543;SDS011;9917;51.256;7.152;2023-04-30T08:21:42;4.35;;;3.10;;
19543;SDS011;9917;51.256;7.152;2023-04-30T08:24:08;5.97;;;3.00;;
19543;SDS011;9917;51.256;7.152;2023-04-30T08:26:34;4.93;;;2.63;;
19543;SDS011;9917;51.256;7.152;2023-04-30T08:28:59;3.70;;;2.50;;
19543;SDS011;9917;51.256;7.152;2023-04-30T08:31:27;4.30;;;2.95;;
19543;SDS011;9917;51.256;7.152;2023-04-30T08:33:52;2.35;;;1.77;;
19543;SDS011;9917;51.256;7.152;2023-04-30T08:36:18;4.65;;;2.25;;
19543;SDS011;9917;51.256;7.152;2023-04-30T08:38:44;3.05;;;1.92;;
19543;SDS011;9917;51.256;7.152;2023-04-30T08:41:10;2.22;;;1.55;;
19543;SDS011;9917;51.256;7.152;2023-04-30T08:43:37;3.05;;;1.73;;
19543;SDS011;9917;51.256;7.152;2023-04-30T08:46:03;3.30;;;2.20;;
19543;SDS011;9917;51.256;7.152;2023-04-30T08:48:31;6.13;;;2.70;;
19543;SDS011;9917;51.256;7.152;2023-04-30T08:50:58;3.22;;;2.20;;
19543;SDS011;9917;51.256;7.152;2023-04-30T08:53:24;3.00;;;2.20;;
19543;SDS011;9917;51.256;7.152;2023-04-30T08:55:50;3.88;;;2.20;;
19543;SDS011;9917;51.256;7.152;2023-04-30T08:58:15;3.15;;;1.33;;
19543;SDS011;9917;51.256;7.152;2023-04-30T09:00:41;1.92;;;1.10;;
19543;SDS011;9917;51.256;7.152;2023-04-30T09:03:07;2.40;;;1.60;;
19543;SDS011;9917;51.256;7.152;2023-04-30T09:05:35;3.95;;;2.25;;
19543;SDS011;9917;51.256;7.152;2023-04-30T09:08:01;2.75;;;1.42;;
19543;SDS011;9917;51.256;7.152;2023-04-30T09:10:27;2.03;;;1.10;;
19543;SDS011;9917;51.256;7.152;2023-04-30T09:12:59;3.72;;;1.73;;
19543;SDS011;9917;51.256;7.152;2023-04-30T09:15:25;2.10;;;1.10;;
19543;SDS011;9917;51.256;7.152;2023-04-30T09:17:53;4.50;;;2.45;;
19543;SDS011;9917;51.256;7.152;2023-04-30T09:20:35;3.45;;;1.80;;
19543;SDS011;9917;51.256;7.152;2023-04-30T09:23:05;4.53;;;2.03;;
19543;SDS011;9917;51.256;7.152;2023-04-30T09:25:36;1.70;;;1.00;;
19543;SDS011;9917;51.256;7.152;2023-04-30T09:28:09;2.25;;;1.30;;
19543;SDS011;9917;51.256;7.152;2023-04-30T09:30:36;2.10;;;1.33;;
19543;SDS011;9917;51.256;7.152;2023-04-30T09:33:02;1.80;;;1.10;;
19543;SDS011;9917;51.256;7.152;2023-04-30T09:35:28;3.40;;;1.10;;
19543;SDS011;9917;51.256;7.152;2023-04-30T09:37:56;1.65;;;1.20;;
19543;SDS011;9917;51.256;7.152;2023-04-30T09:40:31;1.90;;;1.13;;
19543;SDS011;9917;51.256;7.152;2023-04-30T09:42:59;1.77;;;0.90;;
19543;SDS011;9917;51.256;7.152;2023-04-30T09:45:24;1.38;;;0.73;;
19543;SDS011;9917;51.256;7.152;2023-04-30T09:47:51;1.77;;;1.23;;
19543;SDS011;9917;51.256;7.152;2023-04-30T09:50:17;2.25;;;1.65;;
19543;SDS011;9917;51.256;7.152;2023-04-30T09:52:46;2.70;;;1.40;;
19543;SDS011;9917;51.256;7.152;2023-04-30T09:55:17;2.45;;;1.52;;
19543;SDS011;9917;51.256;7.152;2023-04-30T09:57:43;2.33;;;1.25;;
19543;SDS011;9917;51.256;7.152;2023-04-30T10:00:10;1.95;;;1.20;;
19543;SDS011;9917;51.256;7.152;2023-04-30T10:02:36;3.95;;;1.50;;
19543;SDS011;9917;51.256;7.152;2023-04-30T10:05:03;4.47;;;2.25;;
19543;SDS011;9917;51.256;7.152;2023-04-30T10:07:30;4.25;;;1.80;;
19543;SDS011;9917;51.256;7.152;2023-04-30T10:10:02;2.97;;;2.10;;
19543;SDS011;9917;51.256;7.152;2023-04-30T10:12:33;4.30;;;2.17;;
19543;SDS011;9917;51.256;7.152;2023-04-30T10:15:05;3.35;;;2.63;;
19543;SDS011;9917;51.256;7.152;2023-04-30T10:17:37;2.22;;;1.33;;
19543;SDS011;9917;51.256;7.152;2023-04-30T10:20:05;2.90;;;1.40;;
19543;SDS011;9917;51.256;7.152;2023-04-30T10:22:33;2.22;;;1.40;;
19543;SDS011;9917;51.256;7.152;2023-04-30T10:24:59;2.13;;;1.25;;
19543;SDS011;9917;51.256;7.152;2023-04-30T10:27:26;1.98;;;1.10;;
19543;SDS011;9917;51.256;7.152;2023-04-30T10:29:54;3.67;;;1.30;;
19543;SDS011;9917;51.256;7.152;2023-04-30T10:32:21;1.63;;;1.15;;
19543;SDS011;9917;51.256;7.152;2023-04-30T10:34:49;2.63;;;1.67;;
19543;SDS011;9917;51.256;7.152;2023-04-30T10:37:20;2.72;;;1.42;;
19543;SDS011;9917;51.256;7.152;2023-04-30T10:39:51;2.03;;;1.30;;
19543;SDS011;9917;51.256;7.152;2023-04-30T10:42:18;3.67;;;1.13;;
19543;SDS011;9917;51.256;7.152;2023-04-30T10:44:44;1.75;;;1.10;;
19543;SDS011;9917;51.256;7.152;2023-04-30T10:47:11;2.33;;;1.05;;
19543;SDS011;9917;51.256;7.152;2023-04-30T10:49:36;1.60;;;1.27;;
19543;SDS011;9917;51.256;7.152;2023-04-30T10:52:03;1.55;;;0.70;;
19543;SDS011;9917;51.256;7.152;2023-04-30T10:54:31;1.90;;;0.75;;
19543;SDS011;9917;51.256;7.152;2023-04-30T10:57:10;2.72;;;1.48;;
19543;SDS011;9917;51.256;7.152;2023-04-30T10:59:37;1.08;;;0.85;;
19543;SDS011;9917;51.256;7.152;2023-04-30T11:02:06;1.25;;;0.82;;
19543;SDS011;9917;51.256;7.152;2023-04-30T11:07:33;1.65;;;0.93;;
19543;SDS011;9917;51.256;7.152;2023-04-30T11:09:59;1.70;;;1.00;;
19543;SDS011;9917;51.256;7.152;2023-04-30T11:12:26;2.95;;;0.65;;
19543;SDS011;9917;51.256;7.152;2023-04-30T11:14:52;1.48;;;0.57;;
19543;SDS011;9917;51.256;7.152;2023-04-30T11:17:21;0.85;;;0.50;;
19543;SDS011;9917;51.256;7.152;2023-04-30T11:19:48;1.00;;;0.55;;
19543;SDS011;9917;51.256;7.152;2023-04-30T11:22:18;0.93;;;0.50;;
19543;SDS011;9917;51.256;7.152;2023-04-30T11:25:12;1.63;;;0.60;;
19543;SDS011;9917;51.256;7.152;2023-04-30T11:27:49;0.98;;;0.30;;
19543;SDS011;9917;51.256;7.152;2023-04-30T11:30:35;0.77;;;0.40;;
19543;SDS011;9917;51.256;7.152;2023-04-30T11:33:07;1.58;;;0.60;;
19543;SDS011;9917;51.256;7.152;2023-04-30T11:35:38;2.47;;;1.17;;
19543;SDS011;9917;51.256;7.152;2023-04-30T11:38:10;1.17;;;0.50;;
19543;SDS011;9917;51.256;7.152;2023-04-30T11:40:39;1.90;;;0.60;;
19543;SDS011;9917;51.256;7.152;2023-04-30T11:43:05;0.90;;;0.50;;
19543;SDS011;9917;51.256;7.152;2023-04-30T11:45:35;0.75;;;0.45;;
19543;SDS011;9917;51.256;7.152;2023-04-30T11:48:03;1.05;;;0.30;;
19543;SDS011;9917;51.256;7.152;2023-04-30T11:50:32;3.10;;;0.80;;
19543;SDS011;9917;51.256;7.152;2023-04-30T11:53:01;2.17;;;1.00;;
19543;SDS011;9917;51.256;7.152;2023-04-30T11:55:36;1.33;;;0.70;;
19543;SDS011;9917;51.256;7.152;2023-04-30T11:58:02;0.77;;;0.40;;
19543;SDS011;9917;51.256;7.152;2023-04-30T12:00:28;1.95;;;0.40;;
19543;SDS011;9917;51.256;7.152;2023-04-30T12:02:55;1.30;;;0.40;;
19543;SDS011;9917;51.256;7.152;2023-04-30T12:05:22;1.15;;;0.60;;
19543;SDS011;9917;51.256;7.152;2023-04-30T12:07:51;2.78;;;0.65;;
19543;SDS011;9917;51.256;7.152;2023-04-30T12:10:19;2.55;;;0.60;;
19543;SDS011;9917;51.256;7.152;2023-04-30T12:12:45;1.77;;;0.60;;
19543;SDS011;9917;51.256;7.152;2023-04-30T12:15:13;1.20;;;0.60;;
19543;SDS011;9917;51.256;7.152;2023-04-30T12:17:40;1.40;;;0.70;;
19543;SDS011;9917;51.256;7.152;2023-04-30T12:20:07;1.15;;;0.50;;
19543;SDS011;9917;51.256;7.152;2023-04-30T12:22:33;1.30;;;0.60;;
19543;SDS011;9917;51.256;7.152;2023-04-30T12:25:04;0.85;;;0.50;;
19543;SDS011;9917;51.256;7.152;2023-04-30T12:27:31;1.35;;;0.43;;
19543;SDS011;9917;51.256;7.152;2023-04-30T12:30:00;1.77;;;0.68;;
19543;SDS011;9917;51.256;7.152;2023-04-30T12:32:27;1.15;;;0.60;;
19543;SDS011;9917;51.256;7.152;2023-04-30T12:34:56;1.65;;;0.70;;
19543;SDS011;9917;51.256;7.152;2023-04-30T12:37:22;2.70;;;0.80;;
19543;SDS011;9917;51.256;7.152;2023-04-30T12:39:48;2.65;;;1.00;;
19543;SDS011;9917;51.256;7.152;2023-04-30T12:42:18;1.77;;;0.70;;
19543;SDS011;9917;51.256;7.152;2023-04-30T12:44:44;2.78;;;0.80;;
19543;SDS011;9917;51.256;7.152;2023-04-30T12:47:09;3.28;;;0.75;;
19543;SDS011;9917;51.256;7.152;2023-04-30T12:49:35;0.95;;;0.52;;
19543;SDS011;9917;51.256;7.152;2023-04-30T12:52:02;1.77;;;0.77;;
19543;SDS011;9917;51.256;7.152;2023-04-30T12:54:29;1.33;;;0.57;;
19543;SDS011;9917;51.256;7.152;2023-04-30T12:56:59;1.88;;;0.60;;
19543;SDS011;9917;51.256;7.152;2023-04-30T12:59:27;1.30;;;0.60;;
19543;SDS011;9917;51.256;7.152;2023-04-30T13:01:53;2.38;;;0.70;;
19543;SDS011;9917;51.256;7.152;2023-04-30T13:04:19;1.17;;;0.88;;
19543;SDS011;9917;51.256;7.152;2023-04-30T13:06:45;4.30;;;0.90;;
19543;SDS011;9917;51.256;7.152;2023-04-30T13:09:18;2.47;;;1.25;;
19543;SDS011;9917;51.256;7.152;2023-04-30T13:11:50;3.08;;;1.00;;
19543;SDS011;9917;51.256;7.152;2023-04-30T13:14:16;2.88;;;0.88;;
19543;SDS011;9917;51.256;7.152;2023-04-30T13:16:43;2.90;;;1.50;;
19543;SDS011;9917;51.256;7.152;2023-04-30T13:19:09;5.57;;;0.82;;
19543;SDS011;9917;51.256;7.152;2023-04-30T13:21:34;2.28;;;0.98;;
19543;SDS011;9917;51.256;7.152;2023-04-30T13:24:00;1.60;;;1.05;;
19543;SDS011;9917;51.256;7.152;2023-04-30T13:26:26;5.22;;;2.25;;
19543;SDS011;9917;51.256;7.152;2023-04-30T13:28:52;6.07;;;3.22;;
19543;SDS011;9917;51.256;7.152;2023-04-30T13:31:18;4.78;;;1.52;;
19543;SDS011;9917;51.256;7.152;2023-04-30T13:33:45;2.33;;;1.15;;
19543;SDS011;9917;51.256;7.152;2023-04-30T13:36:11;3.30;;;1.23;;
19543;SDS011;9917;51.256;7.152;2023-04-30T13:38:37;5.32;;;1.50;;
19543;SDS011;9917;51.256;7.152;2023-04-30T13:41:03;4.05;;;1.23;;
19543;SDS011;9917;51.256;7.152;2023-04-30T13:43:29;2.70;;;1.38;;
19543;SDS011;9917;51.256;7.152;2023-04-30T13:45:54;3.40;;;1.17;;
19543;SDS011;9917;51.256;7.152;2023-04-30T13:48:20;2.97;;;0.82;;
19543;SDS011;9917;51.256;7.152;2023-04-30T13:50:51;2.03;;;1.27;;
19543;SDS011;9917;51.256;7.152;2023-04-30T13:53:35;3.20;;;0.82;;
19543;SDS011;9917;51.256;7.152;2023-04-30T13:56:03;1.95;;;0.85;;
19543;SDS011;9917;51.256;7.152;2023-04-30T13:58:31;1.73;;;0.80;;
19543;SDS011;9917;51.256;7.152;2023-04-30T14:01:06;1.90;;;0.82;;
19543;SDS011;9917;51.256;7.152;2023-04-30T14:03:31;1.55;;;1.00;;
19543;SDS011;9917;51.256;7.152;2023-04-30T14:05:58;2.80;;;0.75;;
19543;SDS011;9917;51.256;7.152;2023-04-30T14:08:24;3.92;;;1.00;;
19543;SDS011;9917;51.256;7.152;2023-04-30T14:10:50;2.33;;;0.90;;
19543;SDS011;9917;51.256;7.152;2023-04-30T14:13:15;1.27;;;0.60;;
19543;SDS011;9917;51.256;7.152;2023-04-30T14:15:41;2.90;;;0.70;;
19543;SDS011;9917;51.256;7.152;2023-04-30T14:18:07;1.15;;;0.55;;
19543;SDS011;9917;51.256;7.152;2023-04-30T14:20:33;2.20;;;1.10;;
19543;SDS011;9917;51.256;7.152;2023-04-30T14:23:03;2.20;;;1.10;;
19543;SDS011;9917;51.256;7.152;2023-04-30T14:25:29;1.65;;;0.80;;
19543;SDS011;9917;51.256;7.152;2023-04-30T14:27:55;3.72;;;0.95;;
19543;SDS011;9917;51.256;7.152;2023-04-30T14:30:20;3.70;;;0.98;;
19543;SDS011;9917;51.256;7.152;2023-04-30T14:32:46;3.78;;;0.82;;
19543;SDS011;9917;51.256;7.152;2023-04-30T14:35:12;1.40;;;0.60;;
19543;SDS011;9917;51.256;7.152;2023-04-30T14:37:38;2.88;;;1.05;;
19543;SDS011;9917;51.256;7.152;2023-04-30T14:40:06;1.95;;;0.70;;
19543;SDS011;9917;51.256;7.152;2023-04-30T14:42:32;1.73;;;0.60;;
19543;SDS011;9917;51.256;7.152;2023-04-30T14:45:08;1.55;;;0.68;;
19543;SDS011;9917;51.256;7.152;2023-04-30T14:47:50;2.40;;;0.80;;
19543;SDS011;9917;51.256;7.152;2023-04-30T14:50:15;2.70;;;0.80;;
19543;SDS011;9917;51.256;7.152;2023-04-30T14:52:41;2.55;;;0.90;;
19543;SDS011;9917;51.256;7.152;2023-04-30T14:55:09;2.10;;;0.85;;
19543;SDS011;9917;51.256;7.152;2023-04-30T14:57:34;1.80;;;0.90;;
19543;SDS011;9917;51.256;7.152;2023-04-30T15:00:00;1.75;;;0.65;;
19543;SDS011;9917;51.256;7.152;2023-04-30T15:02:26;1.38;;;0.63;;
19543;SDS011;9917;51.256;7.152;2023-04-30T15:04:51;2.47;;;0.90;;
19543;SDS011;9917;51.256;7.152;2023-04-30T15:07:17;2.25;;;0.90;;
19543;SDS011;9917;51.256;7.152;2023-04-30T15:09:43;3.63;;;0.77;;
19543;SDS011;9917;51.256;7.152;2023-04-30T15:12:10;2.80;;;0.60;;
19543;SDS011;9917;51.256;7.152;2023-04-30T15:14:36;1.58;;;0.68;;
19543;SDS011;9917;51.256;7.152;2023-04-30T15:17:02;2.03;;;0.80;;